createdAt,value
2019-04-10T00:01:55.303Z,-1.18
2019-04-10T00:04:23.831Z,-1.18
2019-04-10T00:06:52.291Z,-1.21
2019-04-10T00:09:21.035Z,-1.24
2019-04-10T00:11:49.559Z,-1.24
2019-04-10T00:14:18.560Z,-1.24
2019-04-10T00:16:47.099Z,-1.20
2019-04-10T00:19:15.543Z,-1.30
2019-04-10T00:21:43.960Z,-1.36
2019-04-10T00:24:13.475Z,-1.50
2019-04-10T00:26:41.969Z,-1.55
2019-04-10T00:29:10.412Z,-1.57
2019-04-10T00:31:38.833Z,-1.54
2019-04-10T00:34:07.458Z,-1.55
2019-04-10T00:36:35.850Z,-1.58
2019-04-10T00:39:06.484Z,-1.62
2019-04-10T00:41:34.898Z,-1.62
2019-04-10T00:44:03.589Z,-1.62
2019-04-10T00:46:32.538Z,-1.59
2019-04-10T00:49:01.063Z,-1.59
2019-04-10T00:51:29.471Z,-1.58
2019-04-10T00:53:57.893Z,-1.53
2019-04-10T00:56:26.379Z,-1.44
2019-04-10T00:58:55.440Z,-1.39
2019-04-10T01:01:23.984Z,-1.22
2019-04-10T01:03:52.413Z,-1.08
2019-04-10T01:06:21.970Z,-1.08
2019-04-10T01:08:51.043Z,-1.15
2019-04-10T01:11:19.661Z,-1.35
2019-04-10T01:13:48.151Z,-1.44
2019-04-10T01:16:17.814Z,-1.40
2019-04-10T01:18:47.728Z,-1.32
2019-04-10T01:21:16.310Z,-1.31
2019-04-10T01:23:44.989Z,-1.33
2019-04-10T01:26:13.547Z,-1.37
2019-04-10T01:28:41.962Z,-1.42
2019-04-10T01:31:10.849Z,-1.47
2019-04-10T01:33:39.405Z,-1.56
2019-04-10T01:36:08.870Z,-1.70
2019-04-10T01:38:37.802Z,-1.75
2019-04-10T01:41:06.372Z,-1.78
2019-04-10T01:43:35.143Z,-1.82
2019-04-10T01:46:04.187Z,-1.83
2019-04-10T01:48:32.934Z,-1.85
2019-04-10T01:51:01.523Z,-1.89
2019-04-10T01:53:30.070Z,-1.95
2019-04-10T01:55:59.592Z,-2.01
2019-04-10T01:58:28.058Z,-2.04
2019-04-10T02:01:01.828Z,-2.12
2019-04-10T02:03:30.425Z,-2.07
2019-04-10T02:05:58.894Z,-1.96
2019-04-10T02:08:27.309Z,-1.84
2019-04-10T02:10:56.555Z,-1.79
2019-04-10T02:13:25.458Z,-1.77
2019-04-10T02:15:54.477Z,-1.75
2019-04-10T02:18:23.495Z,-1.66
2019-04-10T02:20:52.070Z,-1.58
2019-04-10T02:23:20.738Z,-1.55
2019-04-10T02:25:49.441Z,-1.68
2019-04-10T02:28:18.588Z,-1.80
2019-04-10T02:30:47.906Z,-1.93
2019-04-10T02:33:17.662Z,-2.06
2019-04-10T02:35:47.663Z,-2.19
2019-04-10T02:38:35.991Z,-2.24
2019-04-10T02:40:47.506Z,-2.32
2019-04-10T02:43:16.361Z,-2.43
2019-04-10T02:45:44.929Z,-2.49
2019-04-10T02:48:14.884Z,-2.51
2019-04-10T02:50:44.778Z,-2.44
2019-04-10T02:53:15.139Z,-2.42
2019-04-10T02:55:43.616Z,-2.39
2019-04-10T02:58:12.152Z,-2.42
2019-04-10T03:00:42.120Z,-2.42
2019-04-10T03:03:12.025Z,-2.49
2019-04-10T03:05:40.816Z,-2.44
2019-04-10T03:08:11.025Z,-2.37
2019-04-10T03:10:47.461Z,-2.36
2019-04-10T03:13:11.457Z,-2.43
2019-04-10T03:15:40.897Z,-2.56
2019-04-10T03:18:09.538Z,-2.56
2019-04-10T03:20:38.493Z,-2.49
2019-04-10T03:23:07.349Z,-2.54
2019-04-10T03:25:35.863Z,-2.57
2019-04-10T03:28:05.087Z,-2.62
2019-04-10T03:30:34.697Z,-2.63
2019-04-10T03:33:12.400Z,-2.71
2019-04-10T03:35:40.928Z,-2.74
2019-04-10T03:38:09.883Z,-2.71
2019-04-10T03:40:38.343Z,-2.60
2019-04-10T03:43:07.676Z,-2.62
2019-04-10T03:45:36.960Z,-2.66
2019-04-10T03:48:06.423Z,-2.52
2019-04-10T03:50:36.121Z,-2.91
2019-04-10T03:53:05.519Z,-3.19
2019-04-10T03:55:34.873Z,-3.44
2019-04-10T03:58:03.412Z,-3.65
2019-04-10T04:00:31.847Z,-3.85
2019-04-10T04:03:00.305Z,-3.97
2019-04-10T04:05:28.896Z,-4.01
2019-04-10T04:07:57.300Z,-4.04
2019-04-10T04:10:26.743Z,-4.06
2019-04-10T04:12:55.355Z,-4.05
2019-04-10T04:15:24.048Z,-4.07
2019-04-10T04:17:52.676Z,-4.08
2019-04-10T04:20:21.200Z,-4.04
2019-04-10T04:22:49.612Z,-3.89
2019-04-10T04:25:18.066Z,-3.78
2019-04-10T04:27:46.488Z,-3.62
2019-04-10T04:32:38.223Z,-3.30
2019-04-10T04:35:07.006Z,-3.24
2019-04-10T04:37:35.797Z,-3.20
2019-04-10T04:40:06.028Z,-3.17
2019-04-10T04:42:35.138Z,-3.24
2019-04-10T04:45:03.805Z,-3.30
2019-04-10T04:47:33.114Z,-3.37
2019-04-10T04:50:01.965Z,-3.40
2019-04-10T04:52:30.449Z,-3.44
2019-04-10T04:54:58.906Z,-3.36
2019-04-10T04:57:27.317Z,-3.28
2019-04-10T04:59:56.841Z,-3.24
2019-04-10T05:02:26.215Z,-3.25
2019-04-10T05:04:54.762Z,-2.95
2019-04-10T05:07:23.212Z,-1.95
2019-04-10T05:09:52.483Z,-0.71
2019-04-10T05:12:21.045Z,0.52
2019-04-10T05:14:49.471Z,1.32
2019-04-10T05:17:18.334Z,1.91
2019-04-10T05:19:46.940Z,2.21
2019-04-10T05:22:15.352Z,2.46
2019-04-10T05:24:44.637Z,2.65
2019-04-10T05:27:14.120Z,3.08
2019-04-10T05:29:43.015Z,3.45
2019-04-10T05:32:11.582Z,3.76
2019-04-10T05:34:40.430Z,4.14
2019-04-10T05:37:09.439Z,4.67
2019-04-10T05:39:43.118Z,4.67
2019-04-10T05:42:08.490Z,4.41
2019-04-10T05:44:38.158Z,4.49
2019-04-10T05:47:07.378Z,4.49
2019-04-10T05:49:35.945Z,4.79
2019-04-10T05:52:04.460Z,4.94
2019-04-10T05:54:33.337Z,4.66
2019-04-10T05:57:01.866Z,4.85
2019-04-10T05:59:30.272Z,5.48
2019-04-10T06:01:58.985Z,5.48
2019-04-10T06:04:27.516Z,5.87
2019-04-10T06:06:56.859Z,5.89
2019-04-10T06:09:25.428Z,6.28
2019-04-10T06:11:53.852Z,6.28
2019-04-10T06:14:22.277Z,6.28
2019-04-10T06:16:51.039Z,6.04
2019-04-10T06:19:19.961Z,5.52
2019-04-10T06:21:48.478Z,4.90
2019-04-10T06:24:18.024Z,4.35
2019-04-10T06:26:47.827Z,3.88
2019-04-10T06:29:17.108Z,3.60
2019-04-10T06:31:45.710Z,3.43
2019-04-10T06:34:16.153Z,3.25
2019-04-10T06:36:44.333Z,3.25
2019-04-10T06:39:12.968Z,3.28
2019-04-10T06:41:41.571Z,3.32
2019-04-10T06:44:09.981Z,3.41
2019-04-10T06:46:39.392Z,3.53
2019-04-10T06:49:09.271Z,3.66
2019-04-10T06:51:37.880Z,3.82
2019-04-10T06:54:09.919Z,4.08
2019-04-10T06:56:37.500Z,4.08
2019-04-10T06:59:06.660Z,4.24
2019-04-10T07:01:46.010Z,4.29
2019-04-10T07:04:08.027Z,4.37
2019-04-10T07:06:49.995Z,4.40
2019-04-10T07:09:09.572Z,4.60
2019-04-10T07:11:38.614Z,4.82
2019-04-10T07:14:10.335Z,4.82
2019-04-10T07:16:37.459Z,5.04
2019-04-10T07:19:09.816Z,5.04
2019-04-10T07:21:37.575Z,5.08
2019-04-10T07:24:08.337Z,5.23
2019-04-10T07:26:41.695Z,5.83
2019-04-10T07:29:06.765Z,5.83
2019-04-10T07:31:36.725Z,6.09
2019-04-10T07:34:05.399Z,6.09
2019-04-10T07:36:34.862Z,6.36
2019-04-10T07:39:04.068Z,6.49
2019-04-10T07:41:33.407Z,6.49
2019-04-10T07:44:01.985Z,6.43
2019-04-10T07:46:31.228Z,6.42
2019-04-10T07:49:00.693Z,6.35
2019-04-10T07:51:29.835Z,6.62
2019-04-10T07:53:58.395Z,6.62
2019-04-10T07:56:26.842Z,7.01
2019-04-10T07:58:55.967Z,7.20
2019-04-10T08:01:24.435Z,7.38
2019-04-10T08:03:53.928Z,7.51
2019-04-10T08:06:23.505Z,7.37
2019-04-10T08:08:52.114Z,7.37
2019-04-10T08:11:21.894Z,7.37
2019-04-10T08:13:51.195Z,7.30
2019-04-10T08:16:19.761Z,7.47
2019-04-10T08:18:48.197Z,7.40
2019-04-10T08:21:17.662Z,7.60
2019-04-10T08:23:46.546Z,7.58
2019-04-10T08:26:16.224Z,7.73
2019-04-10T08:28:45.413Z,7.83
2019-04-10T08:31:14.910Z,7.87
2019-04-10T08:33:44.069Z,7.79
2019-04-10T08:36:12.994Z,7.79
2019-04-10T08:38:42.133Z,8.04
2019-04-10T08:41:10.797Z,8.27
2019-04-10T08:43:39.689Z,8.47
2019-04-10T08:46:08.726Z,8.43
2019-04-10T08:48:37.158Z,8.50
2019-04-10T08:51:06.596Z,8.64
2019-04-10T08:53:36.107Z,8.45
2019-04-10T08:56:04.871Z,7.98
2019-04-10T08:58:33.284Z,7.31
2019-04-10T09:01:01.790Z,7.24
2019-04-10T09:03:30.947Z,7.42
2019-04-10T09:06:00.841Z,7.92
2019-04-10T09:08:29.406Z,8.25
2019-04-10T09:10:58.776Z,8.30
2019-04-10T09:13:28.401Z,8.67
2019-04-10T09:15:56.943Z,8.69
2019-04-10T09:18:25.351Z,8.99
2019-04-10T09:20:53.785Z,9.40
2019-04-10T09:23:30.727Z,9.90
2019-04-10T09:25:52.356Z,9.89
2019-04-10T09:28:20.766Z,9.93
2019-04-10T09:30:49.208Z,10.05
2019-04-10T09:33:24.306Z,9.81
2019-04-10T09:35:48.787Z,9.08
2019-04-10T09:38:17.367Z,8.23
2019-04-10T09:40:46.725Z,8.29
2019-04-10T09:43:15.724Z,8.61
2019-04-10T09:45:44.219Z,8.28
2019-04-10T09:48:12.822Z,8.20
2019-04-10T09:50:41.807Z,8.73
2019-04-10T09:53:10.788Z,8.41
2019-04-10T09:55:40.287Z,8.01
2019-04-10T09:58:09.004Z,7.65
2019-04-10T10:00:38.195Z,7.48
2019-04-10T10:03:07.676Z,7.30
2019-04-10T10:05:36.920Z,7.26
2019-04-10T10:08:06.466Z,7.32
2019-04-10T10:10:37.242Z,7.36
2019-04-10T10:13:05.814Z,7.41
2019-04-10T10:15:34.215Z,7.48
2019-04-10T10:18:03.393Z,7.45
2019-04-10T10:20:32.112Z,7.87
2019-04-10T10:23:01.297Z,8.38
2019-04-10T10:25:30.979Z,8.36
2019-04-10T10:27:59.654Z,8.34
2019-04-10T10:30:28.221Z,8.19
2019-04-10T10:32:57.274Z,8.04
2019-04-10T10:35:25.824Z,8.02
2019-04-10T10:37:54.730Z,8.36
2019-04-10T10:40:23.482Z,8.85
2019-04-10T10:42:52.125Z,9.33
2019-04-10T10:45:20.812Z,9.51
2019-04-10T10:47:50.534Z,9.62
2019-04-10T10:50:19.321Z,10.08
2019-04-10T10:52:48.009Z,10.16
2019-04-10T10:55:17.756Z,10.45
2019-04-10T10:57:47.062Z,10.77
2019-04-10T11:00:17.069Z,10.97
2019-04-10T11:02:45.655Z,10.78
2019-04-10T11:05:14.163Z,10.72
2019-04-10T11:07:42.934Z,10.50
2019-04-10T11:10:12.550Z,10.05
2019-04-10T11:12:42.258Z,9.64
2019-04-10T11:15:12.338Z,9.66
2019-04-10T11:17:41.864Z,9.64
2019-04-10T11:20:12.614Z,10.00
2019-04-10T11:22:42.335Z,10.28
2019-04-10T11:25:12.125Z,10.42
2019-04-10T11:27:42.010Z,10.28
2019-04-10T11:30:12.535Z,9.75
2019-04-10T11:32:42.261Z,9.23
2019-04-10T11:35:11.206Z,8.91
2019-04-10T11:37:44.426Z,9.31
2019-04-10T11:40:12.189Z,9.76
2019-04-10T11:42:40.325Z,10.20
2019-04-10T11:45:10.615Z,10.40
2019-04-10T11:47:39.543Z,10.59
2019-04-10T11:50:13.525Z,10.70
2019-04-10T11:52:44.755Z,10.79
2019-04-10T11:57:41.936Z,10.72
2019-04-10T12:02:43.853Z,11.06
2019-04-10T12:05:14.769Z,10.95
2019-04-10T12:08:09.461Z,10.41
2019-04-10T12:12:41.694Z,8.90
2019-04-10T12:15:10.316Z,9.00
2019-04-10T12:17:38.717Z,9.31
2019-04-10T12:20:07.527Z,9.78
2019-04-10T12:22:35.939Z,10.11
2019-04-10T12:25:06.848Z,10.21
2019-04-10T12:27:35.418Z,10.66
2019-04-10T12:30:06.863Z,11.35
2019-04-10T12:32:35.418Z,11.22
2019-04-10T12:35:05.398Z,10.77
2019-04-10T12:37:34.965Z,10.59
2019-04-10T12:40:05.493Z,10.43
2019-04-10T12:42:34.576Z,10.89
2019-04-10T12:45:04.663Z,10.76
2019-04-10T12:47:34.243Z,10.32
2019-04-10T12:50:03.768Z,9.81
2019-04-10T12:52:32.447Z,9.54
2019-04-10T12:55:01.937Z,9.36
2019-04-10T12:57:30.768Z,9.16
2019-04-10T13:00:03.685Z,9.40
2019-04-10T13:02:30.306Z,9.39
2019-04-10T13:04:58.819Z,9.17
2019-04-10T13:07:27.601Z,9.52
2019-04-10T13:09:56.111Z,10.09
2019-04-10T13:12:25.027Z,10.35
2019-04-10T13:14:53.641Z,10.45
2019-04-10T13:17:22.677Z,10.84
2019-04-10T13:19:51.477Z,11.07
2019-04-10T13:22:20.139Z,11.20
2019-04-10T13:24:48.748Z,11.56
2019-04-10T13:27:17.257Z,11.16
2019-04-10T13:29:46.642Z,10.66
2019-04-10T13:32:16.740Z,10.37
2019-04-10T13:34:45.777Z,10.13
2019-04-10T13:37:14.203Z,10.11
2019-04-10T13:39:43.348Z,10.07
2019-04-10T13:42:12.737Z,10.07
2019-04-10T13:44:42.449Z,10.37
2019-04-10T13:47:11.292Z,10.73
2019-04-10T13:49:39.670Z,11.08
2019-04-10T13:52:08.110Z,11.31
2019-04-10T13:54:36.837Z,11.01
2019-04-10T13:57:05.769Z,10.60
2019-04-10T13:59:35.202Z,10.16
2019-04-10T14:02:05.191Z,9.85
2019-04-10T14:04:33.597Z,9.78
2019-04-10T14:07:02.087Z,10.01
2019-04-10T14:09:42.681Z,10.42
2019-04-10T14:12:01.776Z,10.41
2019-04-10T14:14:30.923Z,10.14
2019-04-10T14:16:59.548Z,9.85
2019-04-10T14:19:29.865Z,9.65
2019-04-10T14:21:58.332Z,9.44
2019-04-10T14:24:38.312Z,9.74
2019-04-10T14:27:01.274Z,10.40
2019-04-10T14:29:30.180Z,10.91
2019-04-10T14:32:03.257Z,11.42
2019-04-10T14:34:31.690Z,11.12
2019-04-10T14:37:01.144Z,10.56
2019-04-10T14:39:29.692Z,10.14
2019-04-10T14:41:58.108Z,10.01
2019-04-10T14:44:26.612Z,9.87
2019-04-10T14:46:55.024Z,9.79
2019-04-10T14:49:23.531Z,9.76
2019-04-10T14:51:52.677Z,9.71
2019-04-10T14:54:21.737Z,9.71
2019-04-10T14:56:50.539Z,9.66
2019-04-10T14:59:19.821Z,9.77
2019-04-10T15:01:48.404Z,9.77
2019-04-10T15:04:17.300Z,9.86
2019-04-10T15:06:45.929Z,9.68
2019-04-10T15:09:22.170Z,9.70
2019-04-10T15:11:47.433Z,9.63
2019-04-10T15:14:15.941Z,9.52
2019-04-10T15:16:53.028Z,9.51
2019-04-10T15:19:14.650Z,9.33
2019-04-10T15:21:43.112Z,9.20
2019-04-10T15:24:11.664Z,9.01
2019-04-10T15:26:40.392Z,8.89
2019-04-10T15:29:08.973Z,8.79
2019-04-10T15:31:37.569Z,8.74
2019-04-10T15:34:06.136Z,8.62
2019-04-10T15:36:34.547Z,8.65
2019-04-10T15:39:04.118Z,8.82
2019-04-10T15:41:32.974Z,9.08
2019-04-10T15:44:01.571Z,9.53
2019-04-10T15:46:30.047Z,9.66
2019-04-10T15:48:58.522Z,9.83
2019-04-10T15:51:27.981Z,9.95
2019-04-10T15:53:57.069Z,9.75
2019-04-10T15:56:25.785Z,9.49
2019-04-10T15:58:54.172Z,9.26
2019-04-10T16:01:23.756Z,9.03
2019-04-10T16:03:52.746Z,8.67
2019-04-10T16:06:21.481Z,8.59
2019-04-10T16:08:50.390Z,8.57
2019-04-10T16:11:21.599Z,8.55
2019-04-10T16:13:52.674Z,8.50
2019-04-10T16:16:32.119Z,8.36
2019-04-10T16:19:02.348Z,8.13
2019-04-10T16:21:31.876Z,8.10
2019-04-10T16:24:04.857Z,8.13
2019-04-10T16:26:33.592Z,8.16
2019-04-10T16:29:02.118Z,8.17
2019-04-10T16:31:30.513Z,8.21
2019-04-10T16:33:58.929Z,8.30
2019-04-10T16:36:27.908Z,8.22
2019-04-10T16:38:57.397Z,8.17
2019-04-10T16:41:28.129Z,8.00
2019-04-10T16:43:57.095Z,7.80
2019-04-10T16:46:25.684Z,7.63
2019-04-10T16:48:54.090Z,7.52
2019-04-10T16:51:22.529Z,7.47
2019-04-10T16:53:51.776Z,7.46
2019-04-10T16:56:21.221Z,7.47
2019-04-10T16:58:49.986Z,7.52
2019-04-10T17:01:18.374Z,7.50
2019-04-10T17:03:46.881Z,7.48
2019-04-10T17:06:15.290Z,7.48
2019-04-10T17:08:43.969Z,7.49
2019-04-10T17:11:12.688Z,7.44
2019-04-10T17:13:41.099Z,7.39
2019-04-10T17:16:09.575Z,7.35
2019-04-10T17:18:39.178Z,7.28
2019-04-10T17:21:08.714Z,7.21
2019-04-10T17:23:37.573Z,7.16
2019-04-10T17:26:06.618Z,7.13
2019-04-10T17:28:35.126Z,7.11
2019-04-10T17:31:05.015Z,7.07
2019-04-10T17:33:34.131Z,7.01
2019-04-10T17:36:02.608Z,6.98
2019-04-10T17:38:31.040Z,6.91
2019-04-10T17:41:02.383Z,6.87
2019-04-10T17:43:29.950Z,6.80
2019-04-10T17:45:58.688Z,6.74
2019-04-10T17:48:28.249Z,6.71
2019-04-10T17:50:57.536Z,6.69
2019-04-10T17:53:26.148Z,6.63
2019-04-10T17:55:55.822Z,6.72
2019-04-10T17:58:25.390Z,6.83
2019-04-10T18:00:58.003Z,6.93
2019-04-10T18:03:39.543Z,6.99
2019-04-10T18:05:57.220Z,7.05
2019-04-10T18:08:28.063Z,6.96
2019-04-10T18:10:57.349Z,6.93
2019-04-10T18:13:26.706Z,6.84
2019-04-10T18:15:55.836Z,6.85
2019-04-10T18:18:25.503Z,6.86
2019-04-10T18:20:53.905Z,6.82
2019-04-10T18:23:23.077Z,6.71
2019-04-10T18:25:51.908Z,6.62
2019-04-10T18:28:21.334Z,6.56
2019-04-10T18:30:49.832Z,6.49
2019-04-10T18:33:18.449Z,6.45
2019-04-10T18:35:47.102Z,6.45
2019-04-10T18:38:15.796Z,6.42
2019-04-10T18:40:53.056Z,6.46
2019-04-10T18:43:14.385Z,6.42
2019-04-10T18:45:55.645Z,6.42
2019-04-10T18:48:12.957Z,6.45
2019-04-10T18:50:41.397Z,6.40
2019-04-10T18:53:10.870Z,6.39
2019-04-10T18:55:40.539Z,6.38
2019-04-10T18:58:11.649Z,6.31
2019-04-10T19:00:58.826Z,6.31
2019-04-10T19:03:52.321Z,6.33
2019-04-10T19:06:28.901Z,6.24
2019-04-10T19:09:07.267Z,6.19
2019-04-10T19:11:32.425Z,6.13
2019-04-10T19:13:57.897Z,6.15
2019-04-10T19:16:26.378Z,6.18
2019-04-10T19:18:56.884Z,6.18
2019-04-10T19:21:25.549Z,6.14
2019-04-10T19:23:55.481Z,6.12
2019-04-10T19:26:24.180Z,6.12
2019-04-10T19:28:52.963Z,6.17
2019-04-10T19:31:24.613Z,6.20
2019-04-10T19:33:53.191Z,6.15
2019-04-10T19:36:21.698Z,6.21
2019-04-10T19:38:50.106Z,6.21
2019-04-10T19:41:25.082Z,6.25
2019-04-10T19:43:48.681Z,6.18
2019-04-10T19:46:17.520Z,6.18
2019-04-10T19:48:48.948Z,6.15
2019-04-10T19:51:16.409Z,6.18
2019-04-10T19:53:45.794Z,6.18
2019-04-10T19:56:14.414Z,6.14
2019-04-10T19:58:43.992Z,6.15
2019-04-10T20:01:12.763Z,6.21
2019-04-10T20:03:41.212Z,6.14
2019-04-10T20:06:09.719Z,6.14
2019-04-10T20:08:38.475Z,6.06
2019-04-10T20:11:06.989Z,5.96
2019-04-10T20:13:35.562Z,5.96
2019-04-10T20:16:04.076Z,5.93
2019-04-10T20:18:32.815Z,5.93
2019-04-10T20:21:01.835Z,5.92
2019-04-10T20:23:30.478Z,5.87
2019-04-10T20:25:58.894Z,5.84
2019-04-10T20:28:27.315Z,5.84
2019-04-10T20:30:56.737Z,5.75
2019-04-10T20:33:26.998Z,5.69
2019-04-10T20:35:56.392Z,5.71
2019-04-10T20:38:25.222Z,5.74
2019-04-10T20:40:54.094Z,5.76
2019-04-10T20:43:22.825Z,5.76
2019-04-10T20:45:51.363Z,5.74
2019-04-10T20:48:20.343Z,5.67
2019-04-10T20:50:50.202Z,5.59
2019-04-10T20:53:19.912Z,5.59
2019-04-10T20:55:48.404Z,5.64
2019-04-10T20:58:17.682Z,5.66
2019-04-10T21:00:47.147Z,5.75
2019-04-10T21:03:15.597Z,5.75
2019-04-10T21:05:44.577Z,5.67
2019-04-10T21:08:13.727Z,5.67
2019-04-10T21:10:42.918Z,5.64
2019-04-10T21:13:11.474Z,5.59
2019-04-10T21:15:40.111Z,5.55
2019-04-10T21:18:08.565Z,5.55
2019-04-10T21:20:37.001Z,5.48
2019-04-10T21:23:05.607Z,5.51
2019-04-10T21:25:35.087Z,5.40
2019-04-10T21:28:04.711Z,5.37
2019-04-10T21:30:51.139Z,5.44
2019-04-10T21:33:36.770Z,5.48
2019-04-10T21:36:05.271Z,5.32
2019-04-10T21:38:33.679Z,5.28
2019-04-10T21:41:02.562Z,5.38
2019-04-10T21:43:31.917Z,5.28
2019-04-10T21:46:00.546Z,5.21
2019-04-10T21:48:28.921Z,5.32
2019-04-10T21:50:58.190Z,5.32
2019-04-10T21:53:26.661Z,5.21
2019-04-10T21:55:55.751Z,5.21
2019-04-10T21:58:24.286Z,5.19
2019-04-10T22:00:54.847Z,5.07
2019-04-10T22:03:23.563Z,5.07
2019-04-10T22:05:53.710Z,5.11
2019-04-10T22:08:29.568Z,4.99
2019-04-10T22:10:58.840Z,4.99
2019-04-10T22:13:28.124Z,4.91
2019-04-10T22:15:57.512Z,4.95
2019-04-10T22:18:26.010Z,4.93
2019-04-10T22:20:54.436Z,4.81
2019-04-10T22:23:22.847Z,4.88
2019-04-10T22:25:52.230Z,4.88
2019-04-10T22:28:21.128Z,4.74
2019-04-10T22:30:50.591Z,4.73
2019-04-10T22:33:20.174Z,4.67
2019-04-10T22:35:48.753Z,4.63
2019-04-10T22:38:17.433Z,4.64
2019-04-10T22:40:46.266Z,4.64
2019-04-10T22:43:15.819Z,4.60
2019-04-10T22:45:44.513Z,4.66
2019-04-10T22:48:12.947Z,4.69
2019-04-10T22:50:41.344Z,4.63
2019-04-10T22:53:09.852Z,4.63
2019-04-10T22:55:38.261Z,4.49
2019-04-10T22:58:06.779Z,4.52
2019-04-10T23:00:35.180Z,4.52
2019-04-10T23:03:03.614Z,4.46
2019-04-10T23:05:32.443Z,4.55
2019-04-10T23:08:01.204Z,4.39
2019-04-10T23:10:29.852Z,4.48
2019-04-10T23:13:02.913Z,4.41
2019-04-10T23:15:28.703Z,4.29
2019-04-10T23:17:57.347Z,4.21
2019-04-10T23:20:26.024Z,4.19
2019-04-10T23:22:54.791Z,4.24
2019-04-10T23:25:24.578Z,4.29
2019-04-10T23:27:55.982Z,4.29
2019-04-10T23:30:24.530Z,4.23
2019-04-10T23:32:53.534Z,4.20
2019-04-10T23:35:22.196Z,4.20
2019-04-10T23:37:51.099Z,4.09
2019-04-10T23:40:20.912Z,4.24
2019-04-10T23:43:01.220Z,4.24
2019-04-10T23:45:19.777Z,4.21
2019-04-10T23:47:48.681Z,4.21
2019-04-10T23:50:18.457Z,4.15
2019-04-10T23:52:47.892Z,4.11
2019-04-10T23:55:17.682Z,4.13
2019-04-10T23:57:46.432Z,4.07
